This is the latest recevied weather packets stored in our database for station/object KJ4YLO. If no packets are shown the sender has not sent any weather packets the latest 10 day(s).
| Time | Temp. | Humidity | Pressure | Rain* | Wind** | Luminosity | Snow |
|---|---|---|---|---|---|---|---|
| 1777337623 | 14.44° C | 78% | 1022.5 hPa | 0 mm | - | 0 W/m² | - |
| 1777337320 | 15° C | 77% | 1022.5 hPa | 0 mm | - | 0 W/m² | - |
| 1777335807 | 16.11° C | 72% | 1022.1 hPa | 0 mm | - | 1 W/m² | - |
| 1777335506 | 16.11° C | 72% | 1022.1 hPa | 0 mm | - | 1 W/m² | - |
| 1777335202 | 16.11° C | 72% | 1022.1 hPa | 0 mm | - | 1 W/m² | - |
| 1777331868 | 19.44° C | 56% | 1022.1 hPa | 0 mm | - | 26 W/m² | - |
| 1777331565 | 19.44° C | 56% | 1021.8 hPa | 0 mm | - | 26 W/m² | - |
| 1777331263 | 19.44° C | 55% | 1022.1 hPa | 0 mm | - | 28 W/m² | - |
| 1777330960 | 19.44° C | 57% | 1022.1 hPa | 0 mm | - | 29 W/m² | - |
| 1777330656 | 19.44° C | 55% | 1021.8 hPa | 0 mm | - | 32 W/m² | - |
| 1777330354 | 19.44° C | 56% | 1021.8 hPa | 0 mm | - | 32 W/m² | - |
| 1777330052 | 20° C | 54% | 1022.1 hPa | 0 mm | - | 35 W/m² | - |
| 1777329751 | 20° C | 54% | 1021.8 hPa | 0 mm | - | 39 W/m² | - |
| 1777329449 | 20.56° C | 53% | 1022.1 hPa | 0 mm | - | 40 W/m² | - |
| 1777329146 | 20.56° C | 52% | 1021.8 hPa | 0 mm | - | 48 W/m² | - |
| 1777328843 | 20.56° C | 53% | 1021.8 hPa | 0 mm | - | 44 W/m² | - |
| 1777328541 | 21.11° C | 53% | 1022.1 hPa | 0 mm | - | 59 W/m² | - |
| 1777328239 | 21.11° C | 51% | 1021.8 hPa | 0 mm | - | 191 W/m² | - |
| 1777327937 | 21.11° C | 52% | 1022.1 hPa | 0 mm | - | 187 W/m² | - |
| 1777327332 | 21.11° C | 52% | 1022.1 hPa | 0 mm | - | 276 W/m² | - |
| 1777327029 | 21.11° C | 52% | 1021.8 hPa | 0 mm | - | 276 W/m² | - |
| 1777326726 | 21.11° C | 52% | 1021.8 hPa | 0 mm | - | 276 W/m² | - |
| 1777326423 | 21.11° C | 52% | 1021.8 hPa | 0 mm | - | 292 W/m² | - |
| 1777326121 | 21.67° C | 52% | 1022.1 hPa | 0 mm | - | 269 W/m² | - |
| 1777325818 | 21.11° C | 52% | 1021.8 hPa | 0 mm | - | 321 W/m² | - |
* Rain latest hour (hover to see other rain measurements)
** Current wind speed in m/s (hover to see current wind gust speed)